Easton, Illinois
Current Conditions -  °F | °C
As of 6:55 PM on Saturday 22 Nov 2014 (Local Time) from KAAA Reporting Station
Overcast Overcast  
Wind Chill: 53°   Ceiling: 2900
Heat Index: 53°   Visibility: 10mi
Dew Point: 48°   Wind: 10mph
Humidity: 82%   Direction: 190°S
Pressure: 29.92"   Gusts: 17mph
Location:  40.23°N, 89.84°W
Report Text: KAAA 230055Z AUTO 19009G15KT 10SM SCT024 BKN029 OVC080 12/09 A2992 RMK AO2 T01170087
Loading
Personal Weather Stations






























Interactive Weather Map New forecast layout! Learn more

10-Day Weather Forecast

Advertisements
Track Severe Weather on mobile